Aggersund, Denmark

1:25 PM CET on February 27, 2017 (GMT +0100)
Vesthimmerland Municipality | | Change Station

Elev 0 ft 56.92 °N, 9.28 °E | Updated 4 minutes ago

Rain
Rain
44.6 °F
Feels Like 41 °F
N
6.8
Wind Variable Wind from SSW
Gusts 13.0 mph

Today
High -- | Low -- °F
--% Chance of Precip.
Yesterday
High -- | Low -- °F
Precip. -- in
Pressure 29.36 in
Visibility 4.3 miles
Clouds Few 900 ft
Mostly Cloudy 1200 ft
Windchill 41 °F
Dew Point 45 °F
Humidity 100%
Rainfall 0.17 in
Snow Depth Not available.
7:20 AM 5:51 PM
New Moon, 1% visible
METAR EKYT 271220Z 19009KT 7000 RA FEW009 BKN012 08/07 Q0994
Pressure 29.36 in
Visibility 4.3 miles
Clouds Few 900 ft
Mostly Cloudy 1200 ft
Windchill 41 °F
Dew Point 45 °F
Humidity 100%
Rainfall 0.17 in
Snow Depth Not available.
7:20 AM 5:51 PM
New Moon, 1% visible
METAR EKYT 271220Z 19009KT 7000 RA FEW009 BKN012 08/07 Q0994

Get Your Daily Forecast Email!

Thanks for signing up!

Be on the lookout for a verification email in your inbox.

You'll start receiving the daily forecast at 8 AM.

×

10-Day Weather Forecast

×

Almanac

Astronomy

Feb. 27, 2017 Rise Set
Actual Time
Civil Twilight
Nautical Twilight
Astronomical Twilight
Moon
Length of Visible Light
Length of Day
Tomorrow will be .
, % of the Moon is Illuminated

Today's Extremes

Country Highs Country Lows

Community

WunderPhotos

Upload Photos

1,962,540 photos uploaded!

WunderBlog® & News

Nearby

Air Quality

  Air Quality AQ Index Pollutant
Not available.

Snow Depth

Station Depth Elevation

Earthquake Activity

City Distance Mag. Time & Date
Minimum magnitude displayed is 2.5.

Coastal Water Temperatures

Place Temperature

Stations

Nearby Weather Stations

Station Location Temp. Windchill Dew Point Humidity Wind Precip. Elev Updated Type